createdAt,value
2023-07-07T00:01:22.479Z,80.20
2023-07-07T00:03:51.115Z,80.16
2023-07-07T00:06:19.556Z,80.18
2023-07-07T00:08:47.517Z,80.33
2023-07-07T00:11:15.609Z,80.80
2023-07-07T00:13:44.502Z,80.74
2023-07-07T00:16:15.287Z,80.38
2023-07-07T00:18:45.576Z,80.18
2023-07-07T00:21:15.230Z,80.28
2023-07-07T00:23:43.133Z,80.54
2023-07-07T00:26:12.014Z,81.54
2023-07-07T00:28:40.403Z,82.62
2023-07-07T00:31:08.418Z,82.65
2023-07-07T00:33:36.641Z,82.29
2023-07-07T00:36:08.745Z,82.17
2023-07-07T00:38:37.523Z,81.93
2023-07-07T00:41:08.522Z,81.75
2023-07-07T00:43:37.356Z,81.75
2023-07-07T00:46:06.794Z,82.01
2023-07-07T00:48:40.104Z,81.40
2023-07-07T00:51:15.241Z,81.28
2023-07-07T00:53:46.800Z,81.07
2023-07-07T00:56:20.906Z,80.68
2023-07-07T00:58:50.103Z,81.74
2023-07-07T01:01:19.819Z,81.19
2023-07-07T01:03:52.017Z,81.29
2023-07-07T01:06:25.741Z,81.55
2023-07-07T01:08:59.953Z,82.06
2023-07-07T01:11:29.588Z,81.64
2023-07-07T01:13:59.942Z,81.35
2023-07-07T01:16:39.710Z,82.02
2023-07-07T01:19:38.833Z,82.54
2023-07-07T01:22:29.652Z,82.61
2023-07-07T01:25:08.837Z,83.26
2023-07-07T01:27:57.263Z,82.73
2023-07-07T01:30:34.558Z,82.75
2023-07-07T01:33:06.466Z,82.64
2023-07-07T01:35:35.672Z,83.24
2023-07-07T01:38:05.797Z,83.82
2023-07-07T01:40:44.537Z,83.29
2023-07-07T01:43:21.265Z,83.89
2023-07-07T01:46:00.926Z,84.26
2023-07-07T01:48:36.180Z,83.82
2023-07-07T01:51:07.431Z,83.90
2023-07-07T01:53:36.767Z,83.23
2023-07-07T01:56:08.439Z,83.52
2023-07-07T01:58:36.713Z,83.29
2023-07-07T02:01:07.285Z,83.35
2023-07-07T02:03:36.272Z,82.81
2023-07-07T02:06:04.225Z,83.08
2023-07-07T02:08:34.100Z,83.12
2023-07-07T02:11:02.318Z,83.88
2023-07-07T02:13:30.510Z,83.76
2023-07-07T02:15:59.758Z,84.22
2023-07-07T02:18:39.218Z,84.21
2023-07-07T02:21:12.540Z,84.01
2023-07-07T02:23:40.501Z,83.40
2023-07-07T02:26:08.980Z,83.93
2023-07-07T02:28:37.440Z,84.51
2023-07-07T02:31:05.597Z,84.48
2023-07-07T02:33:35.104Z,83.89
2023-07-07T02:36:04.683Z,84.34
2023-07-07T02:38:33.457Z,84.15
2023-07-07T02:41:02.530Z,83.88
2023-07-07T02:43:31.717Z,84.49
2023-07-07T02:46:02.282Z,85.32
2023-07-07T02:48:31.309Z,85.14
2023-07-07T02:51:02.549Z,84.32
2023-07-07T02:53:33.303Z,83.83
2023-07-07T02:56:02.059Z,84.83
2023-07-07T02:58:30.715Z,84.80
2023-07-07T03:01:11.138Z,85.97
2023-07-07T03:03:41.884Z,86.41
2023-07-07T03:06:16.956Z,86.50
2023-07-07T03:08:46.719Z,85.26
2023-07-07T03:11:20.270Z,85.74
2023-07-07T03:13:50.343Z,84.47
2023-07-07T03:16:24.935Z,85.18
2023-07-07T03:19:01.724Z,85.03
2023-07-07T03:21:33.703Z,84.81
2023-07-07T03:24:20.786Z,84.86
2023-07-07T03:26:49.468Z,85.11
2023-07-07T03:29:20.977Z,85.35
2023-07-07T03:31:49.572Z,85.00
2023-07-07T03:34:18.745Z,85.05
2023-07-07T03:36:50.808Z,84.93
2023-07-07T03:39:19.188Z,84.86
2023-07-07T03:41:47.140Z,85.65
2023-07-07T03:44:17.086Z,85.55
2023-07-07T03:46:45.604Z,85.18
2023-07-07T03:49:14.493Z,84.69
2023-07-07T03:51:42.673Z,84.95
2023-07-07T03:54:13.724Z,84.79
2023-07-07T03:56:42.612Z,85.18
2023-07-07T03:59:12.125Z,84.72
2023-07-07T04:01:40.262Z,84.60
2023-07-07T04:04:08.336Z,84.39
2023-07-07T04:06:38.936Z,84.08
2023-07-07T04:09:06.995Z,83.96
2023-07-07T04:11:36.785Z,83.96
2023-07-07T04:14:04.914Z,83.62
2023-07-07T04:16:33.543Z,83.58
2023-07-07T04:19:01.570Z,84.37
2023-07-07T04:21:31.330Z,83.79
2023-07-07T04:24:02.569Z,83.98
2023-07-07T04:26:33.021Z,83.76
2023-07-07T04:29:03.373Z,82.81
2023-07-07T04:31:33.206Z,83.49
2023-07-07T04:34:02.150Z,83.70
2023-07-07T04:36:30.238Z,83.41
2023-07-07T04:38:59.745Z,82.61
2023-07-07T04:41:29.243Z,82.77
2023-07-07T04:43:59.105Z,81.95
2023-07-07T04:46:31.545Z,81.69
2023-07-07T04:49:00.218Z,81.91
2023-07-07T04:51:28.359Z,81.86
2023-07-07T04:53:57.264Z,80.98
2023-07-07T04:56:25.557Z,80.49
2023-07-07T04:58:55.753Z,79.85
2023-07-07T05:01:27.534Z,79.13
2023-07-07T05:04:00.760Z,79.09
2023-07-07T05:06:30.753Z,79.11
2023-07-07T05:08:59.756Z,79.70
2023-07-07T05:11:31.112Z,79.47
2023-07-07T05:14:00.262Z,78.74
2023-07-07T05:16:34.936Z,78.23
2023-07-07T05:19:04.398Z,77.21
2023-07-07T05:21:33.085Z,76.84
2023-07-07T05:24:01.262Z,75.40
2023-07-07T05:26:30.371Z,76.34
2023-07-07T05:29:04.040Z,75.10
2023-07-07T05:31:33.680Z,74.36
2023-07-07T05:34:01.860Z,74.48
2023-07-07T05:36:31.738Z,74.08
2023-07-07T05:39:00.148Z,74.53
2023-07-07T05:41:28.147Z,74.65
2023-07-07T05:43:58.104Z,74.46
2023-07-07T05:46:26.933Z,73.50
2023-07-07T05:48:55.937Z,73.09
2023-07-07T05:51:24.385Z,73.24
2023-07-07T05:53:53.840Z,73.51
2023-07-07T05:56:25.037Z,72.40
2023-07-07T05:58:55.490Z,72.77
2023-07-07T06:01:24.661Z,71.73
2023-07-07T06:03:52.696Z,71.68
2023-07-07T06:06:21.605Z,70.62
2023-07-07T06:08:49.957Z,70.45
2023-07-07T06:11:19.801Z,71.55
2023-07-07T06:13:48.371Z,70.14
2023-07-07T06:16:16.445Z,70.64
2023-07-07T06:18:44.922Z,69.84
2023-07-07T06:21:14.402Z,70.54
2023-07-07T06:23:43.325Z,70.33
2023-07-07T06:26:11.799Z,71.21
2023-07-07T06:28:42.195Z,70.55
2023-07-07T06:31:11.133Z,70.18
2023-07-07T06:33:40.206Z,68.78
2023-07-07T06:36:09.040Z,69.44
2023-07-07T06:38:37.025Z,68.77
2023-07-07T06:41:05.428Z,68.45
2023-07-07T06:43:33.382Z,67.11
2023-07-07T06:46:03.380Z,67.19
2023-07-07T06:48:31.390Z,66.23
2023-07-07T06:51:00.357Z,66.92
2023-07-07T06:53:28.860Z,66.12
2023-07-07T06:55:56.917Z,65.71
2023-07-07T06:58:25.427Z,66.42
2023-07-07T07:00:53.561Z,66.87
2023-07-07T07:03:23.575Z,66.37
2023-07-07T07:05:52.769Z,67.10
2023-07-07T07:08:20.733Z,65.18
2023-07-07T07:10:49.586Z,65.86
2023-07-07T07:13:17.609Z,65.65
2023-07-07T07:15:45.580Z,65.97
2023-07-07T07:18:15.455Z,64.63
2023-07-07T07:20:44.983Z,64.56
2023-07-07T07:23:13.439Z,64.50
2023-07-07T07:25:42.155Z,66.32
2023-07-07T07:28:11.728Z,65.20
2023-07-07T07:30:40.116Z,64.61
2023-07-07T07:33:15.132Z,64.29
2023-07-07T07:35:44.874Z,62.64
2023-07-07T07:38:13.776Z,64.07
2023-07-07T07:40:41.777Z,62.46
2023-07-07T07:43:09.828Z,63.51
2023-07-07T07:45:41.357Z,62.61
2023-07-07T07:48:09.650Z,62.66
2023-07-07T07:50:38.310Z,62.29
2023-07-07T07:53:08.452Z,62.60
2023-07-07T07:55:36.233Z,63.49
2023-07-07T07:58:04.863Z,61.74
2023-07-07T08:00:32.825Z,61.52
2023-07-07T08:03:02.038Z,61.12
2023-07-07T08:05:30.618Z,60.74
2023-07-07T08:07:59.125Z,59.91
2023-07-07T08:10:28.416Z,57.64
2023-07-07T08:12:57.238Z,58.17
2023-07-07T08:15:25.291Z,57.81
2023-07-07T08:17:53.725Z,57.28
2023-07-07T08:20:23.225Z,55.10
2023-07-07T08:22:51.340Z,55.34
2023-07-07T08:25:20.400Z,53.87
2023-07-07T08:30:21.764Z,50.63
2023-07-07T08:32:49.773Z,50.54
2023-07-07T08:35:18.258Z,49.31
2023-07-07T08:37:46.669Z,48.43
2023-07-07T08:40:20.047Z,49.92
2023-07-07T08:42:49.925Z,47.76
2023-07-07T08:45:20.737Z,47.26
2023-07-07T08:47:59.826Z,42.21
2023-07-07T08:50:38.699Z,49.32
2023-07-07T08:53:39.761Z,40.89
2023-07-07T08:56:14.728Z,40.36
2023-07-07T08:58:51.569Z,39.92
2023-07-07T09:01:32.301Z,37.65
2023-07-07T09:04:13.125Z,38.53
2023-07-07T09:06:55.937Z,38.38
2023-07-07T09:09:38.593Z,37.83
2023-07-07T09:12:26.146Z,38.08
2023-07-07T09:14:58.128Z,38.13
2023-07-07T09:17:36.389Z,36.97
2023-07-07T09:20:08.406Z,36.83
2023-07-07T09:22:45.093Z,39.68
2023-07-07T09:25:21.042Z,37.31
2023-07-07T09:27:55.688Z,35.79
2023-07-07T09:30:32.370Z,36.55
2023-07-07T09:33:01.868Z,35.60
2023-07-07T09:35:35.876Z,39.41
2023-07-07T09:38:16.118Z,39.54
2023-07-07T09:40:51.320Z,36.26
2023-07-07T09:43:33.450Z,36.36
2023-07-07T09:46:19.361Z,35.89
2023-07-07T09:48:57.558Z,35.92
2023-07-07T09:51:40.762Z,35.56
2023-07-07T09:54:13.531Z,37.63
2023-07-07T09:56:48.586Z,36.88
2023-07-07T09:59:23.404Z,34.98
2023-07-07T10:01:56.348Z,37.02
2023-07-07T10:04:27.621Z,35.21
2023-07-07T10:06:59.156Z,35.24
2023-07-07T10:09:30.138Z,35.49
2023-07-07T10:14:33.292Z,38.28
2023-07-07T10:17:13.108Z,37.30
2023-07-07T10:19:44.422Z,35.54
2023-07-07T10:22:17.721Z,35.81
2023-07-07T10:24:45.743Z,34.36
2023-07-07T10:27:17.076Z,35.26
2023-07-07T10:29:46.284Z,36.04
2023-07-07T10:32:18.972Z,34.65
2023-07-07T10:34:49.768Z,34.95
2023-07-07T10:37:21.215Z,33.50
2023-07-07T10:39:54.720Z,37.53
2023-07-07T10:42:24.979Z,33.00
2023-07-07T10:44:53.781Z,32.87
2023-07-07T10:47:28.033Z,33.79
2023-07-07T10:49:57.274Z,32.04
2023-07-07T10:55:27.301Z,32.55
2023-07-07T10:58:12.594Z,34.89
2023-07-07T11:00:47.078Z,32.77
2023-07-07T11:03:57.232Z,32.19
2023-07-07T11:06:36.064Z,32.85
2023-07-07T11:09:20.072Z,33.49
2023-07-07T11:12:00.134Z,33.79
2023-07-07T11:14:42.585Z,33.07
2023-07-07T11:17:27.507Z,33.41
2023-07-07T11:20:34.737Z,31.72
2023-07-07T11:23:29.258Z,33.96
2023-07-07T11:26:07.164Z,31.21
2023-07-07T11:28:44.649Z,34.19
2023-07-07T11:31:30.349Z,32.58
2023-07-07T11:34:12.244Z,31.90
2023-07-07T11:37:00.224Z,32.34
2023-07-07T11:39:43.980Z,32.85
2023-07-07T11:42:36.454Z,32.75
2023-07-07T11:45:17.984Z,33.37
2023-07-07T11:48:05.133Z,31.80
2023-07-07T11:50:49.211Z,33.96
2023-07-07T11:53:43.976Z,31.12
2023-07-07T11:56:29.494Z,32.66
2023-07-07T11:59:08.045Z,29.99
2023-07-07T12:01:41.096Z,31.03
2023-07-07T12:04:18.758Z,30.24
2023-07-07T12:06:53.723Z,31.68
2023-07-07T12:09:27.830Z,29.49
2023-07-07T12:12:10.899Z,30.92
2023-07-07T12:14:45.548Z,31.32
2023-07-07T12:17:19.265Z,31.31
2023-07-07T12:19:52.410Z,30.03
2023-07-07T12:22:26.754Z,30.40
2023-07-07T12:25:02.098Z,30.14
2023-07-07T12:27:35.322Z,28.23
2023-07-07T12:30:05.501Z,28.67
2023-07-07T12:32:35.236Z,28.89
2023-07-07T12:35:08.432Z,26.97
2023-07-07T12:37:38.386Z,26.82
2023-07-07T12:40:18.858Z,29.06
2023-07-07T12:42:50.593Z,28.30
2023-07-07T12:45:21.483Z,28.75
2023-07-07T12:47:56.658Z,27.92
2023-07-07T12:50:31.437Z,26.87
2023-07-07T12:53:06.362Z,27.62
2023-07-07T12:55:41.966Z,27.79
2023-07-07T12:58:49.611Z,26.84
2023-07-07T13:01:38.205Z,25.69
2023-07-07T13:04:17.500Z,24.35
2023-07-07T13:07:05.070Z,23.00
2023-07-07T13:09:53.871Z,23.53
2023-07-07T13:12:48.456Z,24.58
2023-07-07T13:15:21.011Z,24.77
2023-07-07T13:17:52.479Z,26.84
2023-07-07T13:20:23.177Z,25.05
2023-07-07T13:22:55.332Z,22.88
2023-07-07T13:25:26.691Z,24.75
2023-07-07T13:27:57.235Z,21.13
2023-07-07T13:30:29.485Z,23.87
2023-07-07T13:32:58.546Z,23.45
2023-07-07T13:35:27.672Z,23.37
2023-07-07T13:38:01.959Z,22.48
2023-07-07T13:40:30.548Z,23.50
2023-07-07T13:43:02.156Z,24.48
2023-07-07T13:45:33.892Z,26.59
2023-07-07T13:48:11.836Z,23.59
2023-07-07T13:50:40.007Z,23.91
2023-07-07T13:53:08.978Z,22.36
2023-07-07T13:55:39.467Z,22.46
2023-07-07T13:58:18.575Z,23.87
2023-07-07T14:00:55.955Z,22.95
2023-07-07T14:03:24.877Z,22.95
2023-07-07T14:05:55.546Z,20.79
2023-07-07T14:08:27.001Z,23.23
2023-07-07T14:10:57.073Z,25.10
2023-07-07T14:13:33.638Z,24.13
2023-07-07T14:16:06.820Z,24.32
2023-07-07T14:18:42.932Z,21.54
2023-07-07T14:21:18.361Z,21.62
2023-07-07T14:23:49.544Z,24.15
2023-07-07T14:26:20.238Z,21.51
2023-07-07T14:28:50.692Z,22.15
2023-07-07T14:31:19.189Z,22.82
2023-07-07T14:33:55.186Z,21.46
2023-07-07T14:36:26.268Z,19.78
2023-07-07T14:38:56.679Z,19.72
2023-07-07T14:41:28.581Z,20.00
2023-07-07T14:43:58.593Z,20.23
2023-07-07T14:46:30.842Z,20.34
2023-07-07T14:49:00.517Z,19.87
2023-07-07T14:51:35.088Z,20.61
2023-07-07T14:54:05.582Z,20.43
2023-07-07T14:56:38.477Z,20.85
2023-07-07T14:59:18.994Z,22.96
2023-07-07T15:01:57.021Z,22.01
2023-07-07T15:04:31.188Z,19.14
2023-07-07T15:07:00.373Z,19.07
2023-07-07T15:09:28.419Z,19.49
2023-07-07T15:11:56.769Z,18.19
2023-07-07T15:14:26.598Z,20.45
2023-07-07T15:16:54.807Z,20.18
2023-07-07T15:19:25.014Z,18.31
2023-07-07T15:21:53.212Z,19.99
2023-07-07T15:24:21.633Z,19.94
2023-07-07T15:26:51.263Z,19.56
2023-07-07T15:29:22.273Z,19.71
2023-07-07T15:31:51.703Z,19.38
2023-07-07T15:34:20.850Z,20.13
2023-07-07T15:36:49.740Z,21.02
2023-07-07T15:39:18.204Z,18.77
2023-07-07T15:41:46.278Z,21.24
2023-07-07T15:44:14.648Z,20.04
2023-07-07T15:46:47.892Z,17.63
2023-07-07T15:49:21.097Z,18.41
2023-07-07T15:51:49.172Z,19.25
2023-07-07T15:54:17.796Z,20.26
2023-07-07T15:56:46.967Z,20.25
2023-07-07T15:59:18.079Z,17.64
2023-07-07T16:01:47.204Z,17.84
2023-07-07T16:04:16.346Z,18.69
2023-07-07T16:06:47.385Z,18.86
2023-07-07T16:09:16.948Z,19.46
2023-07-07T16:11:46.830Z,18.67
2023-07-07T16:14:17.236Z,19.82
2023-07-07T16:16:46.552Z,19.38
2023-07-07T16:19:17.595Z,19.14
2023-07-07T16:21:47.440Z,20.50
2023-07-07T16:24:16.150Z,22.15
2023-07-07T16:26:44.823Z,20.84
2023-07-07T16:29:15.568Z,19.17
2023-07-07T16:31:43.819Z,19.10
2023-07-07T16:34:12.275Z,18.47
2023-07-07T16:36:40.728Z,18.26
2023-07-07T16:39:14.670Z,18.21
2023-07-07T16:41:44.056Z,19.35
2023-07-07T16:44:12.021Z,19.64
2023-07-07T16:46:40.568Z,19.22
2023-07-07T16:49:13.492Z,18.98
2023-07-07T16:51:42.193Z,19.34
2023-07-07T16:54:10.419Z,19.02
2023-07-07T16:56:42.478Z,19.12
2023-07-07T16:59:13.651Z,18.99
2023-07-07T17:01:43.778Z,19.86
2023-07-07T17:04:11.834Z,19.93
2023-07-07T17:06:40.296Z,20.17
2023-07-07T17:09:14.327Z,19.84
2023-07-07T17:11:43.757Z,20.62
2023-07-07T17:14:11.866Z,20.16
2023-07-07T17:16:42.641Z,19.66
2023-07-07T17:19:22.305Z,20.64
2023-07-07T17:21:51.086Z,19.24
2023-07-07T17:24:19.331Z,21.07
2023-07-07T17:26:52.652Z,19.96
2023-07-07T17:29:20.858Z,20.30
2023-07-07T17:31:49.027Z,19.74
2023-07-07T17:34:17.855Z,19.64
2023-07-07T17:36:45.817Z,20.00
2023-07-07T17:39:17.441Z,20.63
2023-07-07T17:41:45.860Z,21.75
2023-07-07T17:44:15.190Z,20.42
2023-07-07T17:46:44.077Z,19.63
2023-07-07T17:49:16.519Z,21.08
2023-07-07T17:51:47.021Z,21.30
2023-07-07T17:54:16.303Z,20.67
2023-07-07T17:56:45.211Z,20.74
2023-07-07T17:59:19.888Z,21.17
2023-07-07T18:01:48.766Z,21.32
2023-07-07T18:04:16.986Z,21.10
2023-07-07T18:06:49.889Z,21.10
2023-07-07T18:09:18.616Z,20.53
2023-07-07T18:11:47.042Z,20.79
2023-07-07T18:14:16.034Z,20.96
2023-07-07T18:16:49.106Z,21.02
2023-07-07T18:20:11.320Z,21.23
2023-07-07T18:22:12.849Z,21.88
2023-07-07T18:24:44.658Z,21.84
2023-07-07T18:27:13.701Z,22.55
2023-07-07T18:29:41.656Z,25.22
2023-07-07T18:32:13.333Z,28.15
2023-07-07T18:34:41.902Z,29.05
2023-07-07T18:37:12.629Z,29.36
2023-07-07T18:39:41.866Z,30.18
2023-07-07T18:42:11.196Z,28.51
2023-07-07T18:44:39.752Z,28.48
2023-07-07T18:47:16.569Z,26.64
2023-07-07T18:49:45.861Z,27.95
2023-07-07T18:52:15.637Z,31.55
2023-07-07T18:54:43.436Z,32.77
2023-07-07T18:57:12.482Z,33.19
2023-07-07T18:59:40.873Z,33.86
2023-07-07T19:02:16.275Z,34.33
2023-07-07T19:04:45.504Z,33.93
2023-07-07T19:07:15.957Z,34.08
2023-07-07T19:09:51.063Z,33.55
2023-07-07T19:12:19.138Z,33.13
2023-07-07T19:14:47.586Z,33.87
2023-07-07T19:17:17.355Z,34.87
2023-07-07T19:19:45.274Z,35.72
2023-07-07T19:22:14.577Z,36.29
2023-07-07T19:24:42.523Z,38.23
2023-07-07T19:27:12.939Z,40.54
2023-07-07T19:29:41.773Z,42.68
2023-07-07T19:32:17.075Z,44.04
2023-07-07T19:34:46.056Z,46.07
2023-07-07T19:37:14.066Z,48.92
2023-07-07T19:39:43.904Z,50.80
2023-07-07T19:42:13.279Z,52.57
2023-07-07T19:44:42.136Z,52.88
2023-07-07T19:47:13.280Z,55.54
2023-07-07T19:49:42.928Z,54.43
2023-07-07T19:52:20.303Z,55.18
2023-07-07T19:54:49.836Z,55.80
2023-07-07T19:57:23.368Z,55.97
2023-07-07T19:59:51.581Z,57.20
2023-07-07T20:02:22.210Z,57.82
2023-07-07T20:04:52.092Z,58.18
2023-07-07T20:07:20.080Z,58.79
2023-07-07T20:09:48.449Z,58.52
2023-07-07T20:12:18.975Z,58.60
2023-07-07T20:14:47.795Z,59.52
2023-07-07T20:17:16.618Z,60.65
2023-07-07T20:19:45.015Z,60.14
2023-07-07T20:22:14.624Z,61.23
2023-07-07T20:24:43.446Z,60.71
2023-07-07T20:27:13.584Z,61.77
2023-07-07T20:29:41.650Z,61.71
2023-07-07T20:32:15.494Z,61.94
2023-07-07T20:34:46.583Z,62.48
2023-07-07T20:37:17.423Z,62.04
2023-07-07T20:39:45.560Z,61.97
2023-07-07T20:42:15.179Z,62.94
2023-07-07T20:44:44.409Z,62.74
2023-07-07T20:47:13.891Z,63.13
2023-07-07T20:49:43.201Z,62.89
2023-07-07T20:52:13.261Z,64.11
2023-07-07T20:54:44.183Z,62.60
2023-07-07T20:57:19.670Z,64.05
2023-07-07T20:59:49.616Z,64.58
2023-07-07T21:02:19.171Z,64.21
2023-07-07T21:04:47.209Z,64.24
2023-07-07T21:07:15.705Z,64.28
2023-07-07T21:09:45.061Z,65.10
2023-07-07T21:12:13.017Z,66.13
2023-07-07T21:14:42.225Z,66.02
2023-07-07T21:17:14.940Z,65.64
2023-07-07T21:19:43.964Z,66.41
2023-07-07T21:22:12.640Z,66.90
2023-07-07T21:24:41.045Z,67.36
2023-07-07T21:27:12.111Z,67.94
2023-07-07T21:29:43.138Z,68.42
2023-07-07T21:32:13.083Z,69.07
2023-07-07T21:34:41.069Z,68.92
2023-07-07T21:37:14.394Z,68.36
2023-07-07T21:39:42.386Z,68.23
2023-07-07T21:42:13.813Z,67.45
2023-07-07T21:44:45.657Z,68.35
2023-07-07T21:47:16.980Z,69.22
2023-07-07T21:49:46.196Z,69.70
2023-07-07T21:52:16.696Z,69.93
2023-07-07T21:54:45.538Z,69.65
2023-07-07T21:57:33.446Z,69.26
2023-07-07T22:00:02.435Z,69.74
2023-07-07T22:02:30.392Z,70.02
2023-07-07T22:04:59.081Z,69.19
2023-07-07T22:07:27.630Z,69.89
2023-07-07T22:09:55.636Z,70.74
2023-07-07T22:12:25.426Z,71.18
2023-07-07T22:14:53.467Z,70.26
2023-07-07T22:17:21.446Z,69.83
2023-07-07T22:19:50.719Z,70.03
2023-07-07T22:22:18.748Z,70.36
2023-07-07T22:24:46.698Z,71.18
2023-07-07T22:27:16.336Z,71.92
2023-07-07T22:29:45.766Z,70.96
2023-07-07T22:32:15.163Z,71.84
2023-07-07T22:34:43.577Z,72.09
2023-07-07T22:37:13.412Z,72.50
2023-07-07T22:39:41.244Z,73.03
2023-07-07T22:42:13.968Z,73.74
2023-07-07T22:44:42.109Z,73.40
2023-07-07T22:47:11.899Z,73.42
2023-07-07T22:49:40.912Z,74.07
2023-07-07T22:52:13.670Z,74.16
2023-07-07T22:54:42.635Z,74.08
2023-07-07T22:57:13.445Z,73.61
2023-07-07T22:59:42.414Z,73.34
2023-07-07T23:02:12.808Z,73.25
2023-07-07T23:04:41.260Z,72.42
2023-07-07T23:07:12.435Z,73.11
2023-07-07T23:09:46.038Z,72.41
2023-07-07T23:12:17.009Z,73.17
2023-07-07T23:14:45.756Z,73.11
2023-07-07T23:17:24.097Z,73.40
2023-07-07T23:19:58.284Z,74.45
2023-07-07T23:22:29.261Z,73.67
2023-07-07T23:24:59.863Z,73.80
2023-07-07T23:27:31.046Z,74.29
2023-07-07T23:30:03.079Z,74.68
2023-07-07T23:32:33.596Z,74.98
2023-07-07T23:35:01.756Z,74.69
2023-07-07T23:37:32.350Z,74.70
2023-07-07T23:40:01.343Z,74.79
2023-07-07T23:42:29.310Z,75.75
2023-07-07T23:44:57.797Z,76.16
2023-07-07T23:47:26.656Z,75.75
2023-07-07T23:49:56.169Z,76.46
2023-07-07T23:52:24.656Z,76.65
2023-07-07T23:54:53.055Z,77.23
2023-07-07T23:57:22.500Z,77.01
2023-07-07T23:59:50.627Z,76.63
